Accueil
METAR-TAF:

METAR-TAF

Aéroports :

Aéroport Sandro-Pertini de Turin Caselle

Turin, Italie

latitude: 45-13N, longitude: 007-39E, altitude: 301 m

Observation

Le bulletin a été fait il y a 34 minutes, à 18:50 UTC
Vent 5 kt de nord-ouest
Température 17°C
Humidité 82%
Pression 1023 hPa
Visibilité: 8000 m

METAR: LIMF 201850Z 31005KT 8000 NSC 17/14 Q1023

Heure: 21:24 (19:24 UTC)

Prévision

Le bulletin a été fait il y a 2 heures et 24 minutes, à 17:00 UTC
Prévision valable du 20 à 18 UTC au 21 à 18 UTC
Vent 5 kt de direction variable
Visibilité: 7000 m

TAF: LIMF 201700Z 2018/2118 VRB05KT 7000 NSC

Observations et prévisions météorologiques de plus de 4000 aéroports (messages METAR et TAF).

Les stations disponibles sont représentées par des disques jaunes et rouges sur la carte.

Passer la souris dessus pour voir le nom de la station.

Cliquer dessus pour voir les observations et prévisions météorologiques.

Pour changer de carte: cliquez sur les boutons verts avec une croix noire pour zoomer, sur le bouton vert avec un tiret pour effectuer un zoom arrière, ou sur les flèches vertes pour les cartes adjacentes.


METAR-TAF: